Time;durP1;ratioP1;P1;durP2;ratioP2;P2;SDS_P1;SDS_P2;PMS_P1;PMS_P2;Temp;Humidity;BMP_temperature;BMP_pressure;BME280_temperature;BME280_humidity;BME280_pressure;Samples;Min_cycle;Max_cycle;Signal;HPM_P1;HPM_P2
2024/03/24 00:02:17;;;;;;;1.50;0.80;;;;;;;6.79;71.87;94658.22;5045227;28;20225;-84
2024/03/24 00:08:55;;;;;;;1.00;0.90;;;;;;;6.73;72.23;94658.94;5030630;28;20217;-85
2024/03/24 00:19:06;;;;;;;;;;;;;;;;;;;;;
2024/03/24 00:22:26;;;;;;;;;;;;;;;;;;;;;
2024/03/24 00:35:10;;;;;;;1.57;1.00;;;;;;;6.55;74.53;94752.09;5052506;28;20292;-85
2024/03/24 00:38:15;;;;;;;;;;;;;;;;;;;;;
2024/03/24 00:40:45;;;;;;;1.23;0.77;;;;;;;6.42;75.39;94764.66;5036087;28;20300;-86
2024/03/24 00:43:52;;;;;;;1.20;0.80;;;;;;;6.31;75.55;94765.06;5056128;28;20213;-87
2024/03/24 00:46:27;;;;;;;0.80;0.80;;;;;;;6.39;76.00;94777.78;5048955;28;20193;-87
2024/03/24 00:49:18;;;;;;;0.77;0.70;;;;;;;6.41;75.04;94742.63;5037809;28;20292;-84
2024/03/24 00:51:54;;;;;;;1.80;1.10;;;;;;;6.45;75.44;94735.41;5034222;28;20210;-86
2024/03/24 00:54:35;;;;;;;2.90;1.00;;;;;;;6.55;75.39;94731.63;5038914;28;20201;-84
2024/03/24 00:57:31;;;;;;;4.20;0.80;;;;;;;6.57;74.33;94688.78;5037860;28;20205;-87
2024/03/24 01:03:38;;;;;;;2.50;0.90;;;;;;;6.69;74.84;94717.31;5053706;28;20217;-86
2024/03/24 01:07:28;;;;;;;0.77;0.77;;;;;;;6.73;74.44;94676.84;5053732;28;20197;-86
2024/03/24 01:12:42;;;;;;;;;;;;;;;;;;;;;
2024/03/24 01:15:34;;;;;;;;;;;;;;;;;;;;;
2024/03/24 01:18:43;;;;;;;1.67;1.00;;;;;;;6.83;74.32;94665.38;5061270;28;20261;-87
2024/03/24 01:21:35;;;;;;;2.30;0.90;;;;;;;6.86;74.12;94656.56;5045342;28;20225;-87
2024/03/24 01:24:43;;;;;;;1.60;1.00;;;;;;;6.79;74.51;94658.22;5056651;28;20282;-86
2024/03/24 01:27:48;;;;;;;2.20;1.00;;;;;;;6.74;75.23;94686.06;5060862;28;20189;-86
2024/03/24 01:31:00;;;;;;;1.90;1.07;;;;;;;6.64;76.36;94708.56;5048211;28;20216;-84
2024/03/24 01:33:49;;;;;;;1.53;0.80;;;;;;;6.62;76.51;94707.94;5040365;28;20216;-86
2024/03/24 01:37:14;;;;;;;1.90;1.03;;;;;;;6.46;76.83;94719.91;5041013;28;20261;-85
2024/03/24 01:40:28;;;;;;;1.27;0.80;;;;;;;6.58;76.92;94725.38;5016746;28;20211;-87
2024/03/24 01:43:20;;;;;;;1.60;0.80;;;;;;;6.64;76.33;94698.34;5039302;28;20221;-86
2024/03/24 01:46:04;;;;;;;1.00;0.80;;;;;;;6.67;76.10;94670.66;5041904;28;20190;-86
2024/03/24 01:48:54;;;;;;;1.00;0.90;;;;;;;6.59;76.45;94689.41;5041788;28;20269;-87
2024/03/24 01:51:46;;;;;;;0.70;0.70;;;;;;;6.58;76.78;94692.94;5049816;28;20228;-87
2024/03/24 01:54:34;;;;;;;1.23;0.80;;;;;;;6.57;77.37;94711.00;5060204;28;20201;-86
2024/03/24 01:57:39;;;;;;;1.03;0.63;;;;;;;6.50;78.05;94728.81;5043589;28;20238;-86
2024/03/24 02:00:27;;;;;;;0.80;0.70;;;;;;;6.14;79.66;94761.03;5036642;28;20229;-87
2024/03/24 02:03:23;;;;;;;0.50;0.50;;;;;;;6.02;81.38;94823.69;5036833;28;20256;-84
2024/03/24 02:06:24;;;;;;;1.30;0.70;;;;;;;6.14;82.54;94853.84;5037073;28;20202;-86
2024/03/24 02:09:11;;;;;;;0.87;0.70;;;;;;;5.98;83.02;94850.53;4972934;28;20210;-84
2024/03/24 02:14:38;;;;;;;0.70;0.70;;;;;;;5.79;85.42;94888.25;5046465;28;20212;-86
2024/03/24 02:17:24;;;;;;;0.67;0.60;;;;;;;5.71;85.87;94883.19;5060936;28;20196;-86
2024/03/24 02:19:54;;;;;;;0.90;0.77;;;;;;;5.79;86.14;94880.59;5073825;28;20204;-86
2024/03/24 02:22:49;;;;;;;0.90;0.70;;;;;;;5.87;86.01;94880.56;5061305;28;20256;-86
2024/03/24 02:25:32;;;;;;;0.70;0.70;;;;;;;5.97;85.44;94862.50;5059360;28;20205;-86
2024/03/24 02:28:19;;;;;;;0.70;0.70;;;;;;;6.15;85.00;94852.06;5057449;28;20205;-85
2024/03/24 02:30:48;;;;;;;0.70;0.70;;;;;;;6.27;84.14;94832.03;5057862;28;20305;-86
2024/03/24 02:33:17;;;;;;;1.03;0.70;;;;;;;6.31;83.54;94807.75;5044252;28;20195;-89
2024/03/24 02:36:18;;;;;;;0.60;0.60;;;;;;;6.33;82.15;94762.34;5040531;28;20598;-86
2024/03/24 02:39:06;;;;;;;0.70;0.70;;;;;;;6.31;82.48;94754.84;5039531;28;20281;-85
2024/03/24 02:41:43;;;;;;;0.60;0.60;;;;;;;6.18;81.79;94734.16;5053091;28;20281;-84
2024/03/24 02:44:21;;;;;;;1.30;0.60;;;;;;;6.15;82.19;94752.41;5056977;28;20297;-86
2024/03/24 02:46:53;;;;;;;0.80;0.67;;;;;;;6.15;82.52;94744.75;5059646;28;20201;-86
2024/03/24 02:49:35;;;;;;;0.77;0.67;;;;;;;6.20;82.97;94765.44;5059901;28;20236;-86
2024/03/24 02:52:06;;;;;;;0.60;0.60;;;;;;;6.29;82.83;94759.34;5036383;28;20198;-86
2024/03/24 02:54:39;;;;;;;0.77;0.50;;;;;;;6.14;82.26;94738.84;5048073;28;20716;-87
2024/03/24 02:57:31;;;;;;;0.57;0.57;;;;;;;6.09;83.33;94748.75;5059668;28;20221;-86
2024/03/24 03:00:29;;;;;;;0.60;0.60;;;;;;;6.09;83.39;94750.53;5049956;28;20258;-86
2024/03/24 03:03:14;;;;;;;0.63;0.63;;;;;;;6.11;83.30;94739.19;5037031;28;20511;-85
2024/03/24 03:05:50;;;;;;;0.93;0.70;;;;;;;6.17;83.78;94758.13;5039963;28;20286;-86
2024/03/24 03:08:39;;;;;;;2.20;0.70;;;;;;;6.08;83.48;94738.72;5042202;28;20202;-86
2024/03/24 03:11:16;;;;;;;0.60;0.60;;;;;;;6.21;83.26;94749.16;5044074;28;20218;-85
2024/03/24 03:13:53;;;;;;;0.70;0.70;;;;;;;6.27;83.29;94735.72;5071682;28;20200;-86
2024/03/24 03:16:41;;;;;;;1.27;0.70;;;;;;;6.28;82.26;94716.84;5066182;28;20244;-86
2024/03/24 03:22:51;;;;;;;;;;;;;;;;;;;;;
2024/03/24 03:25:33;;;;;;;1.03;0.80;;;;;;;6.41;82.49;94717.06;5038348;28;20423;-87
2024/03/24 03:28:06;;;;;;;0.60;0.60;;;;;;;6.46;82.33;94704.56;5041413;28;20244;-86
2024/03/24 03:30:43;;;;;;;1.00;0.73;;;;;;;6.46;81.51;94684.09;5047453;28;20244;-85
2024/03/24 03:33:52;;;;;;;0.57;0.57;;;;;;;6.31;80.86;94665.38;5062550;28;20204;-85
2024/03/24 03:36:57;;;;;;;1.40;0.80;;;;;;;6.27;81.23;94671.81;5041900;28;20212;-86
2024/03/24 03:39:53;;;;;;;0.80;0.80;;;;;;;6.31;80.68;94652.59;5042276;28;20201;-86
2024/03/24 03:42:44;;;;;;;1.40;1.00;;;;;;;6.20;81.17;94673.44;5035451;28;20248;-86
2024/03/24 03:45:38;;;;;;;0.70;0.70;;;;;;;6.08;81.62;94672.28;5061874;28;20284;-86
2024/03/24 03:48:43;;;;;;;1.27;0.87;;;;;;;5.98;82.34;94689.56;5039265;28;20228;-86
2024/03/24 03:51:17;;;;;;;1.37;0.80;;;;;;;5.77;84.42;94731.06;4979421;28;20227;-85
2024/03/24 03:57:22;;;;;;;0.90;0.83;;;;;;;5.60;86.86;94791.59;5030564;28;20289;-86
2024/03/24 04:00:15;;;;;;;0.60;0.60;;;;;;;5.55;87.52;94820.19;5027134;28;20232;-86
2024/03/24 04:03:05;;;;;;;0.60;0.60;;;;;;;5.65;87.50;94807.22;5029733;28;20235;-87
2024/03/24 04:05:48;;;;;;;0.70;0.70;;;;;;;5.68;87.29;94794.13;5051952;28;20205;-86
2024/03/24 04:08:26;;;;;;;1.13;0.70;;;;;;;5.64;87.13;94792.84;5041542;28;20230;-87
2024/03/24 04:11:08;;;;;;;0.63;0.63;;;;;;;5.72;86.96;94787.72;5054990;28;20434;-86
2024/03/24 04:13:56;;;;;;;0.60;0.60;;;;;;;5.83;86.78;94789.91;5062758;28;20261;-86
2024/03/24 04:16:39;;;;;;;0.70;0.70;;;;;;;5.78;86.55;94784.50;5060965;28;20203;-87
2024/03/24 04:19:10;;;;;;;1.10;0.80;;;;;;;5.78;86.30;94768.38;5057960;28;20217;-86
2024/03/24 04:21:59;;;;;;;1.80;0.70;;;;;;;5.66;86.66;94779.91;5059960;28;20221;-86
2024/03/24 04:24:35;;;;;;;0.70;0.70;;;;;;;5.67;86.46;94784.88;5039756;28;20629;-86
2024/03/24 04:27:10;;;;;;;0.93;0.70;;;;;;;5.64;86.74;94779.28;5039990;28;20229;-87
2024/03/24 04:30:01;;;;;;;1.03;0.70;;;;;;;5.62;86.43;94776.91;5040446;28;20210;-86
2024/03/24 04:32:41;;;;;;;0.90;0.80;;;;;;;5.67;86.97;94795.09;5040103;28;20248;-86
2024/03/24 04:35:25;;;;;;;0.63;0.63;;;;;;;5.79;86.78;94785.28;5038474;28;20290;-86
2024/03/24 04:38:06;;;;;;;0.60;0.60;;;;;;;5.84;86.11;94768.50;5059096;28;20273;-84
2024/03/24 04:40:56;;;;;;;0.70;0.70;;;;;;;5.81;85.20;94739.94;5052282;28;20228;-87
2024/03/24 04:43:52;;;;;;;0.60;0.60;;;;;;;5.79;85.54;94760.53;5040405;28;20222;-86
2024/03/24 04:50:17;;;;;;;0.50;0.50;;;;;;;5.84;85.27;94739.63;4918626;28;20218;-86
2024/03/24 04:53:07;;;;;;;0.60;0.60;;;;;;;5.80;84.80;94736.59;5052791;28;20221;-85
2024/03/24 04:55:50;;;;;;;0.80;0.80;;;;;;;5.74;84.73;94721.97;5059701;28;20205;-86
2024/03/24 04:58:18;;;;;;;0.87;0.70;;;;;;;5.90;84.22;94726.22;5054348;28;20197;-86
2024/03/24 05:04:06;;;;;;;0.63;0.63;;;;;;;5.87;83.59;94713.75;5058318;28;20259;-84
2024/03/24 05:07:08;;;;;;;0.90;0.90;;;;;;;5.80;83.97;94715.38;5068486;28;20197;-87
2024/03/24 05:10:00;;;;;;;0.50;0.50;;;;;;;5.81;84.02;94727.16;5059680;28;20243;-84
2024/03/24 05:12:47;;;;;;;0.60;0.60;;;;;;;5.79;84.59;94755.44;5047392;28;20202;-86
2024/03/24 05:15:36;;;;;;;0.60;0.60;;;;;;;5.74;83.77;94737.28;5062443;28;20225;-86
2024/03/24 05:18:23;;;;;;;0.60;0.60;;;;;;;5.74;84.17;94739.84;5040753;28;20202;-86
2024/03/24 05:21:27;;;;;;;;;;;;;;;;;;;;;
2024/03/24 05:27:14;;;;;;;;;;;;;;;;;;;;;
2024/03/24 05:30:29;;;;;;;0.90;0.67;;;;;;;5.71;84.29;94749.59;5019877;28;20191;-85
2024/03/24 05:33:19;;;;;;;0.70;0.70;;;;;;;5.65;85.11;94774.03;4940500;29;20225;-86
2024/03/24 05:36:27;;;;;;;0.83;0.80;;;;;;;5.55;85.52;94786.19;4940530;29;20209;-86
2024/03/24 05:39:27;;;;;;;0.60;0.60;;;;;;;5.45;86.92;94818.78;4941518;29;20197;-85
2024/03/24 05:42:17;;;;;;;1.17;1.07;;;;;;;5.58;86.43;94813.16;4944307;28;21777;-87
2024/03/24 05:45:39;;;;;;;0.60;0.60;;;;;;;5.50;86.81;94821.63;4939084;29;20205;-85
2024/03/24 05:48:07;;;;;;;0.77;0.70;;;;;;;5.52;87.17;94832.47;4933981;29;20213;-85
2024/03/24 05:50:55;;;;;;;0.60;0.60;;;;;;;5.63;86.42;94809.13;4998970;28;20233;-87
2024/03/24 06:15:01;;;;;;;0.80;0.80;;;;;;;5.93;83.52;94771.06;4996434;28;20215;-88
2024/03/24 06:18:13;;;;;;;0.83;0.80;;;;;;;5.93;83.64;94760.84;5003332;28;20219;-88
2024/03/24 06:21:23;;;;;;;0.60;0.60;;;;;;;5.82;83.48;94759.41;5011407;28;20218;-87
2024/03/24 06:27:20;;;;;;;0.83;0.80;;;;;;;5.79;82.88;94745.22;4884593;28;20219;-85
2024/03/24 06:29:49;;;;;;;0.80;0.80;;;;;;;5.87;83.39;94767.38;5004950;28;20213;-86
2024/03/24 06:32:16;;;;;;;1.83;0.83;;;;;;;5.98;83.09;94750.91;5000373;28;20222;-84
2024/03/24 06:34:41;;;;;;;0.60;0.60;;;;;;;6.05;82.45;94739.84;4999655;28;20218;-86
2024/03/24 06:37:14;;;;;;;0.97;0.90;;;;;;;6.02;81.89;94724.84;4999846;28;20202;-84
2024/03/24 06:39:43;;;;;;;0.97;0.90;;;;;;;6.15;82.25;94729.41;5001091;28;20271;-84
2024/03/24 06:42:12;;;;;;;0.70;0.70;;;;;;;6.19;81.22;94710.19;5001322;28;20496;-84
2024/03/24 06:44:55;;;;;;;0.70;0.70;;;;;;;6.31;80.77;94708.84;5002772;28;20219;-85
2024/03/24 06:47:48;;;;;;;0.60;0.60;;;;;;;6.57;80.20;94695.66;5005107;28;20218;-86
2024/03/24 06:50:21;;;;;;;0.90;0.90;;;;;;;6.67;79.60;94686.00;5015741;28;20720;-85
2024/03/24 06:52:59;;;;;;;0.73;0.73;;;;;;;6.71;79.50;94689.00;5004955;28;20205;-86
2024/03/24 06:55:41;;;;;;;1.00;0.90;;;;;;;6.86;79.23;94679.56;5005017;28;20191;-86
2024/03/24 06:58:42;;;;;;;1.00;0.80;;;;;;;6.75;79.35;94678.22;5004371;28;20207;-85
2024/03/24 07:01:08;;;;;;;1.00;0.90;;;;;;;6.75;79.82;94696.13;4960259;28;20221;-84
2024/03/24 07:03:43;;;;;;;0.90;0.90;;;;;;;6.99;79.78;94699.41;4961837;28;20232;-86
2024/03/24 07:06:17;;;;;;;1.00;0.80;;;;;;;7.33;78.27;94660.47;5007619;28;20245;-85
2024/03/24 07:08:51;;;;;;;1.00;0.90;;;;;;;7.38;76.19;94600.06;5007477;28;20562;-85
2024/03/24 07:11:17;;;;;;;1.23;0.90;;;;;;;7.52;75.10;94558.25;5024308;28;20242;-86
2024/03/24 07:13:47;;;;;;;1.13;0.90;;;;;;;7.62;74.82;94569.00;5009046;28;20246;-86
2024/03/24 07:16:29;;;;;;;1.73;0.80;;;;;;;7.55;74.58;94557.91;5011547;28;20211;-87
2024/03/24 07:19:06;;;;;;;1.20;0.80;;;;;;;7.56;75.27;94577.41;5007003;28;20211;-87
2024/03/24 07:21:38;;;;;;;1.00;0.90;;;;;;;7.18;74.93;94550.44;4986991;28;20255;-87
2024/03/24 07:24:16;;;;;;;1.00;0.87;;;;;;;7.27;75.59;94591.13;4987605;28;20251;-87
2024/03/24 07:26:47;;;;;;;1.10;1.00;;;;;;;7.67;75.04;94583.03;4987052;28;20215;-87
2024/03/24 07:29:45;;;;;;;1.10;1.00;;;;;;;8.06;72.74;94508.25;4991131;28;20231;-86
2024/03/24 07:32:21;;;;;;;0.77;0.70;;;;;;;7.84;70.90;94403.25;5020258;28;20704;-87
2024/03/24 07:38:47;;;;;;;0.80;0.80;;;;;;;7.53;71.36;94433.56;4984822;28;20234;-88
2024/03/24 07:41:29;;;;;;;1.10;0.80;;;;;;;7.44;71.77;94443.16;4994422;28;20234;-89
2024/03/24 07:44:39;;;;;;;;;;;;;;;;;;;;;
2024/03/24 07:47:35;;;;;;;0.97;0.87;;;;;;;8.34;69.48;94377.47;5004801;28;20202;-86
2024/03/24 07:50:09;;;;;;;0.87;0.87;;;;;;;8.69;68.67;94352.50;5000013;28;20279;-87
2024/03/24 07:52:48;;;;;;;2.60;0.80;;;;;;;8.54;68.67;94332.16;5006607;28;20215;-86
2024/03/24 07:58:49;;;;;;;0.70;0.70;;;;;;;8.06;69.23;94331.41;5001723;28;20686;-88
2024/03/24 08:07:28;;;;;;;1.20;1.10;;;;;;;7.75;72.14;94481.22;5007301;28;20285;-87
2024/03/24 08:13:04;;;;;;;1.17;1.00;;;;;;;7.47;75.99;94587.97;5006212;28;20203;-86
2024/03/24 08:15:39;;;;;;;0.80;0.80;;;;;;;7.29;74.13;94549.97;5004094;28;20278;-89
2024/03/24 08:18:08;;;;;;;2.33;1.40;;;;;;;7.25;77.64;94674.97;5004814;28;20206;-89
2024/03/24 08:20:44;;;;;;;1.00;0.90;;;;;;;7.19;78.57;94700.47;5008801;28;20226;-89
2024/03/24 08:23:44;;;;;;;;;;;;;;;;;;;;;
2024/03/24 08:26:11;;;;;;;1.20;1.10;;;;;;;7.19;78.72;94719.19;4994279;28;20287;-89
2024/03/24 08:28:41;;;;;;;1.20;0.90;;;;;;;7.19;80.12;94757.59;5017959;28;20731;-86
2024/03/24 08:31:28;;;;;;;1.57;1.00;;;;;;;7.29;79.62;94754.78;5002544;28;20258;-90
2024/03/24 08:34:10;;;;;;;1.20;0.80;;;;;;;7.33;79.67;94762.88;5003345;28;20199;-85
2024/03/24 08:36:40;;;;;;;0.93;0.80;;;;;;;7.40;79.03;94738.19;5001221;28;20204;-86
2024/03/24 08:39:16;;;;;;;0.60;0.60;;;;;;;7.41;78.23;94714.94;5008955;28;20215;-86
2024/03/24 08:41:58;;;;;;;0.80;0.80;;;;;;;7.46;79.84;94761.31;5026915;28;20214;-84
2024/03/24 08:47:45;;;;;;;1.00;0.77;;;;;;;7.00;76.92;94654.94;4968956;28;20241;-85
2024/03/24 08:50:22;;;;;;;1.80;0.80;;;;;;;6.78;78.28;94698.34;5015319;28;20563;-86
2024/03/24 08:56:13;;;;;;;0.70;0.70;;;;;;;6.75;79.12;94737.06;4925457;29;20221;-86
2024/03/24 08:59:16;;;;;;;0.70;0.70;;;;;;;6.74;79.47;94762.81;5005428;28;20231;-86
2024/03/24 09:01:50;;;;;;;1.10;0.80;;;;;;;6.55;80.07;94762.31;4998797;28;20262;-87
2024/03/24 09:04:22;;;;;;;0.80;0.80;;;;;;;6.45;80.45;94773.75;5005092;28;20254;-87
2024/03/24 09:07:18;;;;;;;0.97;0.90;;;;;;;6.47;82.18;94833.19;5018492;28;20213;-87
2024/03/24 09:09:51;;;;;;;0.90;0.80;;;;;;;6.42;81.94;94820.91;4958291;28;20216;-87
2024/03/24 09:15:28;;;;;;;1.27;0.87;;;;;;;6.43;82.38;94831.94;4959032;28;20272;-88
2024/03/24 09:18:04;;;;;;;1.07;1.00;;;;;;;6.32;82.12;94827.22;4964984;28;20492;-86
2024/03/24 09:20:41;;;;;;;0.87;0.77;;;;;;;6.18;82.26;94826.97;4964301;28;20231;-87
2024/03/24 09:23:29;;;;;;;1.57;0.97;;;;;;;6.41;82.83;94841.53;4965978;29;20207;-87
2024/03/24 09:26:16;;;;;;;1.10;1.00;;;;;;;6.66;82.78;94853.22;4961970;28;20267;-87
2024/03/24 09:28:55;;;;;;;0.90;0.90;;;;;;;6.81;82.04;94832.78;4979734;28;20196;-87
2024/03/24 09:31:35;;;;;;;1.00;1.00;;;;;;;7.23;80.37;94804.13;4946326;29;20209;-87
2024/03/24 09:34:07;;;;;;;0.90;0.90;;;;;;;7.83;78.04;94747.56;4961408;28;20188;-86
2024/03/24 09:36:50;;;;;;;0.70;0.70;;;;;;;8.08;76.77;94701.13;4982480;28;20276;-86
2024/03/24 09:39:21;;;;;;;0.80;0.80;;;;;;;8.02;76.00;94676.22;4964348;28;20247;-85
2024/03/24 09:42:15;;;;;;;0.80;0.80;;;;;;;7.98;75.08;94627.88;5024179;23;20267;-86
2024/03/24 09:45:38;;;;;;;1.00;0.90;;;;;;;7.60;76.12;94658.03;5004041;28;20290;-84
2024/03/24 09:48:46;;;;;;;;;;;;;;;;;;;;;
2024/03/24 09:51:27;;;;;;;0.60;0.60;;;;;;;8.21;74.81;94640.50;5020145;28;20219;-85
2024/03/24 09:54:05;;;;;;;1.30;1.20;;;;;;;8.42;73.18;94582.47;5020579;28;20207;-86
2024/03/24 09:56:40;;;;;;;0.80;0.80;;;;;;;8.96;72.15;94554.34;5007570;28;20657;-84
2024/03/24 09:59:44;;;;;;;1.23;1.00;;;;;;;9.16;71.56;94539.00;5006350;28;20229;-84
2024/03/24 10:02:26;;;;;;;0.80;0.80;;;;;;;8.85;71.14;94504.31;5002283;28;20226;-84
2024/03/24 10:05:17;;;;;;;0.70;0.70;;;;;;;8.78;73.19;94585.66;5001783;28;20247;-85
2024/03/24 10:08:03;;;;;;;0.80;0.80;;;;;;;9.05;71.58;94548.03;5001080;28;20211;-86
2024/03/24 10:10:33;;;;;;;0.70;0.70;;;;;;;9.53;69.61;94478.59;5013757;28;20243;-83
2024/03/24 10:13:10;;;;;;;0.80;0.80;;;;;;;9.51;68.83;94429.19;4998347;28;20254;-86
2024/03/24 10:16:40;;;;;;;0.83;0.73;;;;;;;9.50;67.68;94382.16;5000353;28;20677;-87
2024/03/24 10:23:26;;;;;;;0.90;0.90;;;;;;;9.60;66.35;94272.06;4931126;29;20292;-86
2024/03/24 10:26:36;;;;;;;0.70;0.70;;;;;;;9.07;67.23;94316.78;4973447;28;20195;-87
2024/03/24 10:32:38;;;;;;;1.27;0.70;;;;;;;8.17;68.85;94370.09;4917808;28;20222;-86
2024/03/24 10:35:33;;;;;;;1.40;1.00;;;;;;;7.72;70.05;94437.25;4949798;28;20205;-84
2024/03/24 10:38:11;;;;;;;1.10;0.80;;;;;;;7.77;71.37;94494.63;5008596;28;20310;-85
2024/03/24 10:41:31;;;;;;;;;;;;;;;;;;;;;
2024/03/24 10:44:49;;;;;;;0.83;0.83;;;;;;;8.23;69.03;94409.56;4941425;29;20232;-86
2024/03/24 10:50:58;;;;;;;0.97;0.97;;;;;;;7.92;68.69;94374.09;4981001;28;20221;-88
2024/03/24 10:53:40;;;;;;;3.33;1.00;;;;;;;7.91;68.10;94316.13;4977541;28;20295;-87
2024/03/24 10:59:20;;;;;;;0.80;0.80;;;;;;;8.71;65.43;94232.50;5010363;28;20250;-87
2024/03/24 11:01:49;;;;;;;1.00;0.90;;;;;;;9.00;65.29;94220.06;5001699;28;20232;-88
2024/03/24 11:05:06;;;;;;;1.67;0.80;;;;;;;9.12;63.25;94089.28;4978328;28;20219;-86
2024/03/24 11:07:32;;;;;;;1.17;0.97;;;;;;;9.04;61.96;94016.88;4970674;28;20207;-86
2024/03/24 11:09:59;;;;;;;2.33;0.90;;;;;;;8.98;62.72;94031.28;5018172;28;20666;-88
2024/03/24 11:12:39;;;;;;;1.87;0.87;;;;;;;8.98;62.29;94013.31;4999726;28;20945;-86
2024/03/24 11:15:18;;;;;;;1.63;1.00;;;;;;;8.91;62.21;93986.91;5009219;28;20285;-87
2024/03/24 11:17:52;;;;;;;1.10;0.70;;;;;;;8.52;60.93;93898.88;5010755;28;20195;-86
2024/03/24 11:20:21;;;;;;;0.83;0.83;;;;;;;8.46;61.61;93927.91;4995758;28;20224;-87
2024/03/24 11:22:53;;;;;;;0.93;0.80;;;;;;;8.38;61.73;93937.59;5003704;28;20199;-88
2024/03/24 11:25:26;;;;;;;0.70;0.70;;;;;;;8.23;63.24;94030.91;5007217;28;20227;-86
2024/03/24 11:28:00;;;;;;;0.70;0.70;;;;;;;8.18;64.64;94138.38;4999868;28;20222;-88
2024/03/24 11:30:40;;;;;;;0.80;0.70;;;;;;;7.94;65.17;94141.50;5005773;28;20274;-88
2024/03/24 11:33:12;;;;;;;0.77;0.77;;;;;;;7.85;65.02;94140.91;5006535;28;20199;-88
2024/03/24 11:35:51;;;;;;;0.87;0.87;;;;;;;7.74;64.71;94130.44;5016122;28;20211;-88
2024/03/24 11:38:17;;;;;;;0.80;0.80;;;;;;;7.62;64.31;94091.81;5006873;28;20195;-86
2024/03/24 11:40:52;;;;;;;1.60;1.10;;;;;;;7.74;65.03;94159.41;5009061;28;20315;-88
2024/03/24 11:43:26;;;;;;;0.70;0.70;;;;;;;7.74;65.18;94163.75;5021086;28;20209;-87
2024/03/24 11:46:09;;;;;;;0.80;0.80;;;;;;;7.73;65.47;94192.91;5023096;28;20249;-88
2024/03/24 11:48:56;;;;;;;1.80;0.70;;;;;;;7.67;66.93;94253.41;5026570;28;20217;-88
2024/03/24 11:51:56;;;;;;;1.40;0.77;;;;;;;7.74;66.92;94261.88;4979649;28;20231;-88
2024/03/24 11:54:44;;;;;;;2.00;0.90;;;;;;;7.80;66.42;94232.94;5009144;28;20198;-87
2024/03/24 12:06:15;;;;;;;0.73;0.73;;;;;;;7.65;66.12;94203.34;4938673;28;20216;-87
2024/03/24 12:08:55;;;;;;;1.00;0.90;;;;;;;7.56;66.95;94236.78;4985381;28;20208;-87
2024/03/24 12:11:25;;;;;;;0.87;0.87;;;;;;;7.67;67.85;94293.59;4987551;28;20227;-86
2024/03/24 12:13:51;;;;;;;1.57;1.03;;;;;;;7.79;67.98;94323.59;5023568;28;20203;-87
2024/03/24 12:16:24;;;;;;;1.10;1.00;;;;;;;7.93;68.11;94347.50;4999788;28;20266;-87
2024/03/24 12:19:09;;;;;;;1.20;0.80;;;;;;;7.91;68.00;94321.25;5001633;28;20217;-87
2024/03/24 12:22:17;;;;;;;;;;;;;;;;;;;;;
2024/03/24 12:24:45;;;;;;;0.70;0.70;;;;;;;7.55;66.57;94237.75;4996072;28;20227;-88
2024/03/24 12:27:27;;;;;;;0.77;0.70;;;;;;;7.66;67.41;94272.31;4995557;28;20620;-88
2024/03/24 12:30:20;;;;;;;1.80;0.93;;;;;;;7.89;67.23;94282.22;5005420;28;20211;-86
2024/03/24 12:33:14;;;;;;;;;;;;;;;;;;;;;
2024/03/24 12:36:09;;;;;;;0.90;0.80;;;;;;;7.63;69.20;94375.13;4996874;28;20260;-86
2024/03/24 12:38:44;;;;;;;0.80;0.80;;;;;;;7.48;71.52;94474.31;5004352;28;20282;-86
2024/03/24 12:41:35;;;;;;;0.73;0.73;;;;;;;7.47;71.93;94503.47;5004472;28;20227;-86
2024/03/24 12:45:19;;;;;;;;;;;;;;;;;;;;;
2024/03/24 12:46:54;;;;;;;0.70;0.70;;;;;;;6.94;74.87;94602.72;4971538;28;20209;-87
2024/03/24 12:49:40;;;;;;;2.13;1.00;;;;;;;6.89;76.08;94633.19;4984317;28;20204;-86
2024/03/24 12:52:17;;;;;;;0.90;0.80;;;;;;;6.88;77.50;94677.63;5003427;28;20219;-87
2024/03/24 12:54:45;;;;;;;2.00;0.90;;;;;;;6.94;79.59;94721.22;5001405;28;20230;-85
2024/03/24 12:58:14;;;;;;;1.20;1.07;;;;;;;6.96;79.19;94708.25;5002546;28;20204;-85
2024/03/24 13:01:03;;;;;;;1.73;1.10;;;;;;;7.18;79.51;94712.50;4977067;28;20922;-86
2024/03/24 13:07:16;;;;;;;1.47;1.10;;;;;;;7.21;77.62;94657.59;4991568;28;20230;-85
2024/03/24 13:10:31;;;;;;;1.30;1.00;;;;;;;7.12;78.92;94697.06;4920183;29;20333;-84
2024/03/24 13:13:19;;;;;;;1.60;1.20;;;;;;;6.77;80.07;94722.34;4919153;29;20339;-86
2024/03/24 13:16:23;;;;;;;2.97;2.37;;;;;;;6.62;81.01;94759.09;4917428;29;20732;-85
2024/03/24 13:19:04;;;;;;;1.50;1.40;;;;;;;6.64;80.65;94746.94;4895253;29;20216;-87
2024/03/24 13:21:48;;;;;;;1.50;1.33;;;;;;;6.75;80.38;94718.34;4919448;29;20233;-86
2024/03/24 13:24:44;;;;;;;1.80;1.47;;;;;;;6.99;80.83;94736.03;4965268;28;20231;-87
2024/03/24 13:27:35;;;;;;;2.00;1.60;;;;;;;7.52;80.69;94734.19;4996569;28;20227;-87
2024/03/24 13:30:22;;;;;;;1.87;1.60;;;;;;;8.02;77.92;94658.25;4994072;28;20215;-87
2024/03/24 13:33:04;;;;;;;2.10;1.50;;;;;;;8.57;76.51;94640.41;4996642;28;20231;-87
2024/03/24 13:36:12;;;;;;;2.90;1.97;;;;;;;8.54;73.68;94507.38;4996122;28;20206;-86
2024/03/24 13:38:50;;;;;;;1.97;1.60;;;;;;;8.84;71.46;94425.78;4992957;28;20211;-86
2024/03/24 13:41:46;;;;;;;2.13;1.60;;;;;;;8.84;69.02;94312.84;4983423;28;20253;-86
2024/03/24 13:44:43;;;;;;;1.90;1.30;;;;;;;8.52;68.22;94259.72;4997840;28;20810;-87
2024/03/24 13:50:11;;;;;;;3.43;1.40;;;;;;;8.53;69.70;94336.47;4972763;28;20351;-88
2024/03/24 13:52:38;;;;;;;1.50;1.40;;;;;;;8.69;69.17;94319.13;5001241;28;20748;-87
2024/03/24 13:58:30;;;;;;;2.00;1.20;;;;;;;8.50;64.49;94043.69;4979568;28;20219;-88
2024/03/24 14:01:14;;;;;;;1.73;1.30;;;;;;;8.47;64.76;94062.81;4998286;28;20230;-86
2024/03/24 14:03:57;;;;;;;2.70;2.50;;;;;;;8.36;62.89;93975.47;4999052;28;20427;-86
2024/03/24 14:06:24;;;;;;;1.30;1.20;;;;;;;8.38;61.76;93894.03;4991395;28;20244;-89
2024/03/24 14:08:54;;;;;;;1.73;1.30;;;;;;;8.17;60.23;93774.59;4981473;28;20215;-88
2024/03/24 14:11:21;;;;;;;1.40;1.20;;;;;;;8.18;61.16;93824.88;4981575;28;20223;-88
2024/03/24 14:14:08;;;;;;;2.50;1.27;;;;;;;8.12;60.70;93817.97;5018959;28;20202;-87
2024/03/24 14:16:50;;;;;;;1.80;1.33;;;;;;;7.93;61.42;93852.94;4994881;28;20632;-87
2024/03/24 14:19:29;;;;;;;2.03;1.30;;;;;;;7.84;61.15;93819.09;5003858;28;20752;-87
2024/03/24 14:22:19;;;;;;;2.30;1.23;;;;;;;7.85;61.98;93874.47;5001975;28;20442;-87
2024/03/24 14:25:01;;;;;;;1.47;1.27;;;;;;;7.89;62.39;93918.38;5002708;28;20290;-86
2024/03/24 14:27:29;;;;;;;1.50;1.40;;;;;;;7.96;62.53;93939.66;4989084;28;20252;-85
2024/03/24 14:29:55;;;;;;;2.17;1.43;;;;;;;7.91;62.53;93931.78;5010389;28;20203;-86
2024/03/24 14:32:22;;;;;;;2.30;1.50;;;;;;;7.83;62.98;93949.94;5002544;28;20211;-85
2024/03/24 14:34:58;;;;;;;2.10;1.80;;;;;;;7.84;63.10;93970.25;4997916;28;20231;-87
2024/03/24 14:38:19;;;;;;;2.60;1.40;;;;;;;7.88;63.25;93976.56;4994750;28;20196;-86
2024/03/24 14:41:15;;;;;;;1.67;1.30;;;;;;;7.70;62.21;93901.31;5000972;28;20238;-86
2024/03/24 14:44:05;;;;;;;2.30;1.20;;;;;;;7.75;61.91;93886.13;4999335;28;20739;-86
2024/03/24 14:46:50;;;;;;;2.40;1.43;;;;;;;7.79;61.56;93852.22;4988234;28;20223;-87
2024/03/24 14:49:21;;;;;;;2.00;1.20;;;;;;;7.84;61.68;93860.09;4995455;28;20214;-86
2024/03/24 14:51:51;;;;;;;1.77;1.50;;;;;;;7.76;61.29;93839.81;4988211;28;20833;-86
2024/03/24 14:54:16;;;;;;;1.40;1.23;;;;;;;7.72;61.79;93860.91;5000443;28;20643;-86
2024/03/24 14:57:03;;;;;;;2.47;1.50;;;;;;;7.75;61.83;93865.63;4995752;28;20194;-87
2024/03/24 14:59:42;;;;;;;2.90;1.37;;;;;;;7.59;62.76;93916.28;4991950;28;20227;-87
2024/03/24 15:09:34;;;;;;;1.50;1.20;;;;;;;7.62;62.34;93915.09;4984699;28;20199;-88
2024/03/24 15:12:29;;;;;;;2.13;1.50;;;;;;;7.67;62.13;93899.94;4946004;28;20228;-86
2024/03/24 15:15:24;;;;;;;1.30;1.20;;;;;;;7.68;61.66;93859.75;4998411;28;20196;-87
2024/03/24 15:18:19;;;;;;;;;;;;;;;;;;;;;
2024/03/24 15:21:16;;;;;;;1.27;1.13;;;;;;;7.71;61.00;93820.91;4999472;28;20220;-86
2024/03/24 15:27:33;;;;;;;3.67;1.20;;;;;;;7.70;60.62;93786.06;5000673;28;20235;-85
2024/03/24 15:30:41;;;;;;;1.40;1.10;;;;;;;7.65;60.18;93788.44;4994236;28;20201;-88
2024/03/24 15:33:42;;;;;;;2.03;1.40;;;;;;;7.90;68.94;94255.63;5001138;28;20207;-86
2024/03/24 15:36:17;;;;;;;1.70;1.10;;;;;;;8.39;65.09;94157.16;4981983;28;20210;-87
2024/03/24 15:39:03;;;;;;;1.67;1.10;;;;;;;8.31;60.87;93868.38;5000488;28;20190;-86
2024/03/24 15:41:45;;;;;;;2.33;1.23;;;;;;;7.82;61.11;93828.75;5003004;28;20277;-87
2024/03/24 15:44:51;;;;;;;2.17;1.43;;;;;;;7.57;61.71;93861.13;5003362;28;20200;-86
2024/03/24 15:47:40;;;;;;;;;;;;;;;;;;;;;
2024/03/24 15:50:34;;;;;;;;;;;;;;;;;;;;;
2024/03/24 15:56:35;;;;;;;1.23;0.93;;;;;;;7.91;59.80;93767.81;4977756;28;20748;-89